sensor_id;sensor_type;location;lat;lon;timestamp;pressure;altitude;pressure_sealevel;temperature;humidity
66196;BME280;53000;45.182;5.736;2022-10-14T00:01:22;99564.03;;;19.69;64.75
66196;BME280;53000;45.182;5.736;2022-10-14T00:03:51;99557.72;;;19.68;64.30
66196;BME280;53000;45.182;5.736;2022-10-14T00:06:22;99546.97;;;19.67;64.37
66196;BME280;53000;45.182;5.736;2022-10-14T00:08:48;99548.66;;;19.68;64.77
66196;BME280;53000;45.182;5.736;2022-10-14T00:11:22;99550.78;;;19.66;64.59
66196;BME280;53000;45.182;5.736;2022-10-14T00:13:48;99546.16;;;19.59;63.70
66196;BME280;53000;45.182;5.736;2022-10-14T00:16:22;99540.94;;;19.51;63.97
66196;BME280;53000;45.182;5.736;2022-10-14T00:18:48;99539.06;;;19.52;64.04
66196;BME280;53000;45.182;5.736;2022-10-14T00:21:15;99541.41;;;19.48;64.86
66196;BME280;53000;45.182;5.736;2022-10-14T00:23:47;99538.25;;;19.45;64.41
66196;BME280;53000;45.182;5.736;2022-10-14T00:26:27;99546.47;;;19.45;64.41
66196;BME280;53000;45.182;5.736;2022-10-14T00:28:53;99539.31;;;19.44;64.68
66196;BME280;53000;45.182;5.736;2022-10-14T00:31:21;99543.09;;;19.42;64.63
66196;BME280;53000;45.182;5.736;2022-10-14T00:33:49;99546.31;;;19.39;64.31
66196;BME280;53000;45.182;5.736;2022-10-14T00:36:17;99543.97;;;19.43;64.35
66196;BME280;53000;45.182;5.736;2022-10-14T00:38:48;99536.78;;;19.42;64.41
66196;BME280;53000;45.182;5.736;2022-10-14T00:41:19;99536.78;;;19.42;64.57
66196;BME280;53000;45.182;5.736;2022-10-14T00:46:19;99546.09;;;19.41;64.30
66196;BME280;53000;45.182;5.736;2022-10-14T00:48:44;99540.81;;;19.39;64.08
66196;BME280;53000;45.182;5.736;2022-10-14T00:51:12;99549.25;;;19.38;64.22
66196;BME280;53000;45.182;5.736;2022-10-14T00:53:40;99552.47;;;19.35;64.09
66196;BME280;53000;45.182;5.736;2022-10-14T00:56:10;99558.16;;;19.33;64.47
66196;BME280;53000;45.182;5.736;2022-10-14T00:58:41;99557.53;;;19.31;64.72
66196;BME280;53000;45.182;5.736;2022-10-14T01:01:13;99556.72;;;19.31;64.67
66196;BME280;53000;45.182;5.736;2022-10-14T01:03:41;99557.75;;;19.30;64.67
66196;BME280;53000;45.182;5.736;2022-10-14T01:06:18;99547.22;;;19.27;64.20
66196;BME280;53000;45.182;5.736;2022-10-14T01:11:43;99539.03;;;19.20;64.53
66196;BME280;53000;45.182;5.736;2022-10-14T01:17:15;99542.16;;;19.24;64.78
66196;BME280;53000;45.182;5.736;2022-10-14T01:22:37;99531.81;;;19.26;64.81
66196;BME280;53000;45.182;5.736;2022-10-14T01:28:32;99532.66;;;19.26;64.55
66196;BME280;53000;45.182;5.736;2022-10-14T01:31:12;99522.94;;;19.24;64.82
66196;BME280;53000;45.182;5.736;2022-10-14T01:33:47;99518.31;;;19.24;65.25
66196;BME280;53000;45.182;5.736;2022-10-14T01:36:23;99522.72;;;19.25;64.80
66196;BME280;53000;45.182;5.736;2022-10-14T01:39:09;99521.69;;;19.26;64.67
66196;BME280;53000;45.182;5.736;2022-10-14T01:41:39;99512.22;;;19.22;64.99
66196;BME280;53000;45.182;5.736;2022-10-14T01:44:10;99510.75;;;19.19;64.67
66196;BME280;53000;45.182;5.736;2022-10-14T01:46:38;99509.06;;;19.18;64.72
66196;BME280;53000;45.182;5.736;2022-10-14T01:49:09;99505.47;;;19.18;64.64
66196;BME280;53000;45.182;5.736;2022-10-14T01:51:46;99511.19;;;19.16;64.82
66196;BME280;53000;45.182;5.736;2022-10-14T01:54:26;99502.13;;;19.16;65.33
66196;BME280;53000;45.182;5.736;2022-10-14T01:57:01;99501.66;;;19.19;64.84
66196;BME280;53000;45.182;5.736;2022-10-14T01:59:31;99499.38;;;19.16;64.78
66196;BME280;53000;45.182;5.736;2022-10-14T02:02:07;99502.94;;;19.16;64.85
66196;BME280;53000;45.182;5.736;2022-10-14T02:04:40;99504.84;;;19.16;64.72
66196;BME280;53000;45.182;5.736;2022-10-14T02:22:07;99482.72;;;19.11;64.79
66196;BME280;53000;45.182;5.736;2022-10-14T02:24:41;99482.94;;;19.09;65.06
66196;BME280;53000;45.182;5.736;2022-10-14T02:27:14;99484.63;;;19.10;65.18
66196;BME280;53000;45.182;5.736;2022-10-14T02:29:47;99480.22;;;19.09;64.92
66196;BME280;53000;45.182;5.736;2022-10-14T02:32:15;99484.00;;;19.08;65.50
66196;BME280;53000;45.182;5.736;2022-10-14T02:34:45;99473.47;;;19.05;65.25
66196;BME280;53000;45.182;5.736;2022-10-14T02:37:16;99479.38;;;19.02;65.10
66196;BME280;53000;45.182;5.736;2022-10-14T02:39:51;99480.66;;;18.99;64.71
66196;BME280;53000;45.182;5.736;2022-10-14T02:42:21;99472.06;;;18.96;65.12
66196;BME280;53000;45.182;5.736;2022-10-14T02:45:12;99467.63;;;18.95;65.18
66196;BME280;53000;45.182;5.736;2022-10-14T02:47:41;99469.72;;;18.93;65.34
66196;BME280;53000;45.182;5.736;2022-10-14T02:50:06;99472.47;;;18.93;65.67
66196;BME280;53000;45.182;5.736;2022-10-14T02:52:38;99469.72;;;18.93;65.85
66196;BME280;53000;45.182;5.736;2022-10-14T02:55:04;99468.28;;;18.90;65.71
66196;BME280;53000;45.182;5.736;2022-10-14T02:57:32;99465.75;;;18.89;66.18
66196;BME280;53000;45.182;5.736;2022-10-14T02:59:59;99469.13;;;18.91;65.95
66196;BME280;53000;45.182;5.736;2022-10-14T03:02:25;99465.94;;;18.94;66.12
66196;BME280;53000;45.182;5.736;2022-10-14T03:04:50;99468.44;;;18.95;66.38
66196;BME280;53000;45.182;5.736;2022-10-14T03:07:16;99465.94;;;18.94;65.88
66196;BME280;53000;45.182;5.736;2022-10-14T03:09:41;99461.50;;;18.93;65.70
66196;BME280;53000;45.182;5.736;2022-10-14T03:12:06;99460.88;;;18.91;65.84
66196;BME280;53000;45.182;5.736;2022-10-14T03:14:34;99454.56;;;18.90;66.24
66196;BME280;53000;45.182;5.736;2022-10-14T03:16:59;99459.22;;;18.90;66.25
66196;BME280;53000;45.182;5.736;2022-10-14T03:19:27;99457.31;;;18.90;66.30
66196;BME280;53000;45.182;5.736;2022-10-14T03:21:55;99459.38;;;18.95;66.56
66196;BME280;53000;45.182;5.736;2022-10-14T03:24:23;99448.59;;;19.00;66.19
66196;BME280;53000;45.182;5.736;2022-10-14T03:26:48;99448.81;;;18.98;66.20
66196;BME280;53000;45.182;5.736;2022-10-14T03:29:16;99451.94;;;19.02;66.12
66196;BME280;53000;45.182;5.736;2022-10-14T03:31:52;99445.00;;;18.99;66.35
66196;BME280;53000;45.182;5.736;2022-10-14T03:34:17;99452.41;;;18.99;66.44
66196;BME280;53000;45.182;5.736;2022-10-14T03:36:45;99446.28;;;18.97;66.09
66196;BME280;53000;45.182;5.736;2022-10-14T03:39:13;99438.53;;;18.94;66.56
66196;BME280;53000;45.182;5.736;2022-10-14T03:41:45;99436.81;;;18.93;66.73
66196;BME280;53000;45.182;5.736;2022-10-14T03:44:13;99432.41;;;18.92;66.54
66196;BME280;53000;45.182;5.736;2022-10-14T03:46:39;99436.41;;;18.89;66.90
66196;BME280;53000;45.182;5.736;2022-10-14T03:49:06;99434.91;;;18.93;66.48
66196;BME280;53000;45.182;5.736;2022-10-14T03:51:35;99431.13;;;18.94;67.03
66196;BME280;53000;45.182;5.736;2022-10-14T03:54:02;99434.06;;;18.93;66.76
66196;BME280;53000;45.182;5.736;2022-10-14T03:56:30;99429.44;;;18.93;66.79
66196;BME280;53000;45.182;5.736;2022-10-14T03:58:55;99420.38;;;18.93;66.62
66196;BME280;53000;45.182;5.736;2022-10-14T04:01:21;99417.22;;;18.89;66.65
66196;BME280;53000;45.182;5.736;2022-10-14T04:03:46;99419.75;;;18.91;67.03
66196;BME280;53000;45.182;5.736;2022-10-14T04:06:17;99416.16;;;18.90;66.62
66196;BME280;53000;45.182;5.736;2022-10-14T04:08:45;99423.94;;;18.93;66.61
66196;BME280;53000;45.182;5.736;2022-10-14T04:11:13;99414.47;;;18.89;66.61
66196;BME280;53000;45.182;5.736;2022-10-14T04:13:41;99414.91;;;18.86;66.77
66196;BME280;53000;45.182;5.736;2022-10-14T04:16:08;99421.69;;;18.84;66.68
66196;BME280;53000;45.182;5.736;2022-10-14T04:18:37;99421.44;;;18.85;66.40
66196;BME280;53000;45.182;5.736;2022-10-14T04:21:12;99416.81;;;18.86;66.48
66196;BME280;53000;45.182;5.736;2022-10-14T04:23:38;99415.13;;;18.85;66.48
66196;BME280;53000;45.182;5.736;2022-10-14T04:26:05;99419.16;;;18.82;66.60
66196;BME280;53000;45.182;5.736;2022-10-14T04:28:31;99417.72;;;18.79;66.67
66196;BME280;53000;45.182;5.736;2022-10-14T04:31:00;99428.47;;;18.81;66.76
66196;BME280;53000;45.182;5.736;2022-10-14T04:33:26;99425.72;;;18.81;66.80
66196;BME280;53000;45.182;5.736;2022-10-14T04:36:00;99423.41;;;18.78;66.68
66196;BME280;53000;45.182;5.736;2022-10-14T04:38:26;99421.69;;;18.77;66.65
66196;BME280;53000;45.182;5.736;2022-10-14T04:40:52;99435.22;;;18.72;67.36
66196;BME280;53000;45.182;5.736;2022-10-14T04:43:20;99426.16;;;18.71;67.19
66196;BME280;53000;45.182;5.736;2022-10-14T04:45:48;99425.53;;;18.69;67.43
66196;BME280;53000;45.182;5.736;2022-10-14T04:48:18;99413.34;;;18.58;67.70
66196;BME280;53000;45.182;5.736;2022-10-14T04:50:52;99420.69;;;18.65;67.20
66196;BME280;53000;45.182;5.736;2022-10-14T04:53:25;99420.91;;;18.63;67.70
66196;BME280;53000;45.182;5.736;2022-10-14T04:55:53;99420.69;;;18.65;67.79
66196;BME280;53000;45.182;5.736;2022-10-14T04:58:18;99425.13;;;18.66;67.78
66196;BME280;53000;45.182;5.736;2022-10-14T05:00:44;99426.59;;;18.68;67.40
66196;BME280;53000;45.182;5.736;2022-10-14T05:03:10;99432.91;;;18.69;67.75
66196;BME280;53000;45.182;5.736;2022-10-14T05:05:35;99432.09;;;18.68;67.56
66196;BME280;53000;45.182;5.736;2022-10-14T05:08:01;99432.09;;;18.68;67.50
66196;BME280;53000;45.182;5.736;2022-10-14T05:10:28;99436.28;;;18.71;67.36
66196;BME280;53000;45.182;5.736;2022-10-14T05:12:59;99425.53;;;18.69;67.36
66196;BME280;53000;45.182;5.736;2022-10-14T05:15:25;99429.72;;;18.72;67.24
66196;BME280;53000;45.182;5.736;2022-10-14T05:17:50;99427.59;;;18.74;67.39
66196;BME280;53000;45.182;5.736;2022-10-14T05:20:16;99424.03;;;18.73;67.35
66196;BME280;53000;45.182;5.736;2022-10-14T05:22:44;99427.41;;;18.75;67.41
66196;BME280;53000;45.182;5.736;2022-10-14T05:25:10;99424.66;;;18.75;67.56
66196;BME280;53000;45.182;5.736;2022-10-14T05:27:42;99418.53;;;18.73;67.28
66196;BME280;53000;45.182;5.736;2022-10-14T05:30:08;99422.75;;;18.76;67.31
66196;BME280;53000;45.182;5.736;2022-10-14T05:32:34;99427.19;;;18.77;67.00
66196;BME280;53000;45.182;5.736;2022-10-14T05:35:02;99432.47;;;18.78;67.02
66196;BME280;53000;45.182;5.736;2022-10-14T05:37:28;99393.53;;;18.56;67.38
66196;BME280;53000;45.182;5.736;2022-10-14T05:39:53;99425.09;;;18.72;67.41
66196;BME280;53000;45.182;5.736;2022-10-14T05:42:21;99427.22;;;18.70;67.02
66196;BME280;53000;45.182;5.736;2022-10-14T05:44:47;99418.75;;;18.72;67.26
66196;BME280;53000;45.182;5.736;2022-10-14T05:47:12;99417.47;;;18.74;67.21
66196;BME280;53000;45.182;5.736;2022-10-14T05:49:40;99412.22;;;18.73;67.09
66196;BME280;53000;45.182;5.736;2022-10-14T05:52:05;99408.88;;;18.71;67.51
66196;BME280;53000;45.182;5.736;2022-10-14T05:54:31;99408.44;;;18.67;66.96
66196;BME280;53000;45.182;5.736;2022-10-14T05:56:56;99412.44;;;18.71;67.20
66196;BME280;53000;45.182;5.736;2022-10-14T05:59:34;99409.91;;;18.70;67.27
66196;BME280;53000;45.182;5.736;2022-10-14T06:02:02;99416.00;;;18.72;67.25
66196;BME280;53000;45.182;5.736;2022-10-14T06:04:30;99423.63;;;18.70;67.37
66196;BME280;53000;45.182;5.736;2022-10-14T06:07:00;99419.22;;;18.69;67.51
66196;BME280;53000;45.182;5.736;2022-10-14T06:09:29;99415.41;;;18.70;67.01
66196;BME280;53000;45.182;5.736;2022-10-14T06:11:55;99411.19;;;18.67;67.66
66196;BME280;53000;45.182;5.736;2022-10-14T06:14:22;99413.94;;;18.67;68.08
66196;BME280;53000;45.182;5.736;2022-10-14T06:16:51;99421.31;;;18.67;67.16
66196;BME280;53000;45.182;5.736;2022-10-14T06:19:21;99418.16;;;18.63;67.46
66196;BME280;53000;45.182;5.736;2022-10-14T06:21:46;99425.56;;;18.63;67.67
66196;BME280;53000;45.182;5.736;2022-10-14T06:24:14;99427.47;;;18.62;67.47
66196;BME280;53000;45.182;5.736;2022-10-14T06:26:39;99432.72;;;18.64;67.75
66196;BME280;53000;45.182;5.736;2022-10-14T06:29:05;99438.00;;;18.65;67.34
66196;BME280;53000;45.182;5.736;2022-10-14T06:31:34;99441.16;;;18.69;67.86
66196;BME280;53000;45.182;5.736;2022-10-14T06:34:04;99442.81;;;18.70;67.90
66196;BME280;53000;45.182;5.736;2022-10-14T06:36:32;99446.81;;;18.74;68.09
66196;BME280;53000;45.182;5.736;2022-10-14T06:38:57;99443.84;;;18.75;67.87
66196;BME280;53000;45.182;5.736;2022-10-14T06:41:28;99450.16;;;18.83;67.70
66196;BME280;53000;45.182;5.736;2022-10-14T06:43:53;99450.56;;;18.86;67.69
66196;BME280;53000;45.182;5.736;2022-10-14T06:46:19;99458.13;;;18.91;67.38
66196;BME280;53000;45.182;5.736;2022-10-14T06:48:44;99457.94;;;18.92;67.41
66196;BME280;53000;45.182;5.736;2022-10-14T06:51:09;99461.28;;;18.94;67.37
66196;BME280;53000;45.182;5.736;2022-10-14T06:53:35;99452.03;;;18.89;67.30
66196;BME280;53000;45.182;5.736;2022-10-14T06:56:04;99471.59;;;18.99;67.25
66196;BME280;53000;45.182;5.736;2022-10-14T06:58:33;99478.13;;;19.05;67.25
66196;BME280;53000;45.182;5.736;2022-10-14T07:01:04;99475.13;;;19.06;67.35
66196;BME280;53000;45.182;5.736;2022-10-14T07:03:35;99483.38;;;19.06;67.22
66196;BME280;53000;45.182;5.736;2022-10-14T07:06:03;99485.69;;;19.09;66.85
66196;BME280;53000;45.182;5.736;2022-10-14T07:08:29;99485.44;;;19.11;67.04
66196;BME280;53000;45.182;5.736;2022-10-14T07:10:54;99488.44;;;19.09;67.78
66196;BME280;53000;45.182;5.736;2022-10-14T07:13:24;99485.28;;;19.06;66.94
66196;BME280;53000;45.182;5.736;2022-10-14T07:15:57;99486.78;;;19.02;66.94
66196;BME280;53000;45.182;5.736;2022-10-14T07:18:25;99490.19;;;18.97;67.34
66196;BME280;53000;45.182;5.736;2022-10-14T07:20:51;99497.63;;;18.90;67.25
66196;BME280;53000;45.182;5.736;2022-10-14T07:23:19;99501.41;;;18.89;67.32
66196;BME280;53000;45.182;5.736;2022-10-14T07:25:44;99499.28;;;18.91;67.24
66196;BME280;53000;45.182;5.736;2022-10-14T07:28:12;99504.78;;;18.91;67.14
66196;BME280;53000;45.182;5.736;2022-10-14T07:30:38;99512.56;;;18.94;67.61
66196;BME280;53000;45.182;5.736;2022-10-14T07:33:10;99511.72;;;18.93;67.24
66196;BME280;53000;45.182;5.736;2022-10-14T07:35:37;99508.78;;;18.88;68.33
66196;BME280;53000;45.182;5.736;2022-10-14T07:38:03;99507.72;;;18.89;67.74
66196;BME280;53000;45.182;5.736;2022-10-14T07:40:30;99507.31;;;18.92;67.25
66196;BME280;53000;45.182;5.736;2022-10-14T07:42:56;99512.75;;;18.99;67.74
66196;BME280;53000;45.182;5.736;2022-10-14T07:45:21;99517.38;;;19.05;67.47
66196;BME280;53000;45.182;5.736;2022-10-14T07:47:49;99522.81;;;19.12;67.38
66196;BME280;53000;45.182;5.736;2022-10-14T07:50:16;99527.03;;;19.14;67.47
66196;BME280;53000;45.182;5.736;2022-10-14T07:52:47;99520.44;;;19.22;67.45
66196;BME280;53000;45.182;5.736;2022-10-14T07:55:15;99519.56;;;19.28;66.95
66196;BME280;53000;45.182;5.736;2022-10-14T07:57:43;99523.78;;;19.31;66.73
66196;BME280;53000;45.182;5.736;2022-10-14T08:00:11;99523.09;;;19.35;66.52
66196;BME280;53000;45.182;5.736;2022-10-14T08:02:39;99526.69;;;19.36;66.20
66196;BME280;53000;45.182;5.736;2022-10-14T08:05:06;99521.38;;;19.41;66.31
66196;BME280;53000;45.182;5.736;2022-10-14T08:07:34;99523.47;;;19.46;66.09
66196;BME280;53000;45.182;5.736;2022-10-14T08:09:59;99518.75;;;19.53;65.98
66196;BME280;53000;45.182;5.736;2022-10-14T08:12:33;99528.19;;;19.64;65.79
66196;BME280;53000;45.182;5.736;2022-10-14T08:14:59;99525.19;;;19.72;65.63
66196;BME280;53000;45.182;5.736;2022-10-14T08:17:24;99523.84;;;19.81;65.46
66196;BME280;53000;45.182;5.736;2022-10-14T08:19:52;99520.84;;;19.89;65.38
66196;BME280;53000;45.182;5.736;2022-10-14T08:22:20;99530.31;;;19.93;64.54
66196;BME280;53000;45.182;5.736;2022-10-14T08:24:48;99529.47;;;19.93;64.70
66196;BME280;53000;45.182;5.736;2022-10-14T08:27:14;99534.28;;;19.97;64.74
66196;BME280;53000;45.182;5.736;2022-10-14T08:29:40;99535.06;;;20.05;64.46
66196;BME280;53000;45.182;5.736;2022-10-14T08:32:10;99532.25;;;20.11;64.35
66196;BME280;53000;45.182;5.736;2022-10-14T08:34:43;99530.53;;;20.17;63.81
66196;BME280;53000;45.182;5.736;2022-10-14T08:37:11;99530.31;;;20.18;63.67
66196;BME280;53000;45.182;5.736;2022-10-14T08:39:36;99525.63;;;20.19;63.55
66196;BME280;53000;45.182;5.736;2022-10-14T08:47:20;99534.56;;;20.14;63.81
66196;BME280;53000;45.182;5.736;2022-10-14T08:52:51;99524.63;;;20.13;63.18
66196;BME280;53000;45.182;5.736;2022-10-14T08:55:36;99531.19;;;20.12;63.28
66196;BME280;53000;45.182;5.736;2022-10-14T08:58:30;99536.28;;;20.09;63.29
66196;BME280;53000;45.182;5.736;2022-10-14T09:01:00;99532.72;;;20.08;63.26
66196;BME280;53000;45.182;5.736;2022-10-14T09:03:29;99536.69;;;20.12;63.21
66196;BME280;53000;45.182;5.736;2022-10-14T09:06:06;99531.75;;;20.21;62.86
66196;BME280;53000;45.182;5.736;2022-10-14T09:08:38;99530.84;;;20.27;63.03
66196;BME280;53000;45.182;5.736;2022-10-14T09:11:12;99540.53;;;20.30;62.78
66196;BME280;53000;45.182;5.736;2022-10-14T09:13:42;99536.06;;;20.35;63.01
66196;BME280;53000;45.182;5.736;2022-10-14T09:16:26;99539.34;;;20.44;62.85
66196;BME280;53000;45.182;5.736;2022-10-14T09:19:02;99533.03;;;20.62;62.71
66196;BME280;53000;45.182;5.736;2022-10-14T09:21:38;99531.56;;;20.78;61.96
66196;BME280;53000;45.182;5.736;2022-10-14T09:26:45;99530.75;;;20.96;61.96
66196;BME280;53000;45.182;5.736;2022-10-14T09:29:29;99536.38;;;21.01;61.38
66196;BME280;53000;45.182;5.736;2022-10-14T09:32:01;99538.44;;;21.06;61.33
66196;BME280;53000;45.182;5.736;2022-10-14T09:34:31;99535.59;;;21.12;60.92
66196;BME280;53000;45.182;5.736;2022-10-14T09:37:28;99532.78;;;21.19;60.80
66196;BME280;53000;45.182;5.736;2022-10-14T09:40:16;99524.41;;;21.26;60.60
66196;BME280;53000;45.182;5.736;2022-10-14T09:45:51;99512.75;;;21.42;60.20
66196;BME280;53000;45.182;5.736;2022-10-14T09:48:38;99520.91;;;21.49;60.55
66196;BME280;53000;45.182;5.736;2022-10-14T09:51:25;99519.38;;;21.53;59.92
66196;BME280;53000;45.182;5.736;2022-10-14T09:54:02;99514.38;;;21.61;59.91
66196;BME280;53000;45.182;5.736;2022-10-14T09:56:33;99520.03;;;21.78;59.44
66196;BME280;53000;45.182;5.736;2022-10-14T09:59:00;99517.56;;;22.00;58.26
66196;BME280;53000;45.182;5.736;2022-10-14T10:01:36;99513.75;;;22.25;59.22
66196;BME280;53000;45.182;5.736;2022-10-14T10:06:53;99499.47;;;23.04;54.90
66196;BME280;53000;45.182;5.736;2022-10-14T10:09:20;99487.41;;;23.39;57.04
66196;BME280;53000;45.182;5.736;2022-10-14T10:11:49;99491.91;;;23.57;55.77
66196;BME280;53000;45.182;5.736;2022-10-14T10:14:28;99491.22;;;23.66;55.64
66196;BME280;53000;45.182;5.736;2022-10-14T10:19:38;99484.84;;;23.66;54.62
66196;BME280;53000;45.182;5.736;2022-10-14T10:24:46;99480.75;;;23.68;54.13
66196;BME280;53000;45.182;5.736;2022-10-14T10:29:53;99474.97;;;23.70;54.29
66196;BME280;53000;45.182;5.736;2022-10-14T10:32:36;99475.91;;;23.76;53.92
66196;BME280;53000;45.182;5.736;2022-10-14T10:35:21;99474.09;;;23.81;53.44
66196;BME280;53000;45.182;5.736;2022-10-14T10:38:18;99469.66;;;23.80;53.26
66196;BME280;53000;45.182;5.736;2022-10-14T10:51:58;99448.34;;;24.54;51.56
66196;BME280;53000;45.182;5.736;2022-10-14T11:07:57;99434.22;;;24.77;50.43
66196;BME280;53000;45.182;5.736;2022-10-14T11:10:58;99433.03;;;24.68;50.06
66196;BME280;53000;45.182;5.736;2022-10-14T11:19:55;99408.72;;;24.31;50.39
66196;BME280;53000;45.182;5.736;2022-10-14T11:28:10;99390.91;;;24.22;50.67
66196;BME280;53000;45.182;5.736;2022-10-14T11:31:22;99387.31;;;24.21;50.44
66196;BME280;53000;45.182;5.736;2022-10-14T11:39:18;99387.44;;;24.32;51.27
66196;BME280;53000;45.182;5.736;2022-10-14T11:42:46;99386.91;;;24.35;50.57
66196;BME280;53000;45.182;5.736;2022-10-14T11:44:41;99397.44;;;24.38;50.91
66196;BME280;53000;45.182;5.736;2022-10-14T11:47:13;99390.31;;;24.42;50.92
66196;BME280;53000;45.182;5.736;2022-10-14T11:49:47;99389.25;;;24.43;50.16
66196;BME280;53000;45.182;5.736;2022-10-14T11:52:26;99387.28;;;24.43;50.95
66196;BME280;53000;45.182;5.736;2022-10-14T11:55:07;99383.44;;;24.44;50.73
66196;BME280;53000;45.182;5.736;2022-10-14T11:57:59;99380.69;;;24.44;50.94
66196;BME280;53000;45.182;5.736;2022-10-14T12:00:29;99385.63;;;24.42;50.50
66196;BME280;53000;45.182;5.736;2022-10-14T12:06:16;99376.44;;;24.37;50.55
66196;BME280;53000;45.182;5.736;2022-10-14T12:11:20;99375.06;;;24.39;50.25
66196;BME280;53000;45.182;5.736;2022-10-14T12:13:59;99373.72;;;24.42;50.53
66196;BME280;53000;45.182;5.736;2022-10-14T12:16:27;99367.94;;;24.43;49.71
66196;BME280;53000;45.182;5.736;2022-10-14T12:18:55;99368.47;;;24.40;49.51
66196;BME280;53000;45.182;5.736;2022-10-14T12:21:47;99362.06;;;24.40;50.41
66196;BME280;53000;45.182;5.736;2022-10-14T12:24:20;99361.31;;;24.44;50.35
66196;BME280;53000;45.182;5.736;2022-10-14T12:29:27;99355.44;;;24.63;48.77
66196;BME280;53000;45.182;5.736;2022-10-14T12:34:37;99357.44;;;24.67;48.68
66196;BME280;53000;45.182;5.736;2022-10-14T12:37:46;99356.34;;;24.68;49.37
66196;BME280;53000;45.182;5.736;2022-10-14T12:40:22;99359.94;;;24.69;48.24
66196;BME280;53000;45.182;5.736;2022-10-14T12:42:59;99361.56;;;24.65;48.83
66196;BME280;53000;45.182;5.736;2022-10-14T12:45:28;99354.88;;;24.61;48.15
66196;BME280;53000;45.182;5.736;2022-10-14T12:48:13;99362.34;;;24.60;48.45
66196;BME280;53000;45.182;5.736;2022-10-14T12:50:41;99357.38;;;24.62;48.47
66196;BME280;53000;45.182;5.736;2022-10-14T12:53:26;99364.66;;;24.68;48.84
66196;BME280;53000;45.182;5.736;2022-10-14T12:56:03;99365.50;;;24.69;48.54
66196;BME280;53000;45.182;5.736;2022-10-14T12:58:40;99378.41;;;24.63;48.91
66196;BME280;53000;45.182;5.736;2022-10-14T13:01:16;99363.13;;;24.56;48.55
66196;BME280;53000;45.182;5.736;2022-10-14T13:03:54;99357.97;;;24.42;48.81
66196;BME280;53000;45.182;5.736;2022-10-14T13:06:42;99353.13;;;24.33;49.01
66196;BME280;53000;45.182;5.736;2022-10-14T13:11:44;99348.88;;;24.25;49.31
66196;BME280;53000;45.182;5.736;2022-10-14T13:19:38;99346.41;;;24.23;49.42
66196;BME280;53000;45.182;5.736;2022-10-14T13:27:41;99344.31;;;24.14;49.62
66196;BME280;53000;45.182;5.736;2022-10-14T13:32:57;99337.34;;;24.06;49.85
66196;BME280;53000;45.182;5.736;2022-10-14T13:38:12;99342.19;;;23.99;50.04
66196;BME280;53000;45.182;5.736;2022-10-14T13:40:46;99340.53;;;23.98;50.15
66196;BME280;53000;45.182;5.736;2022-10-14T13:43:28;99341.88;;;23.95;50.21
66196;BME280;53000;45.182;5.736;2022-10-14T13:48:33;99336.94;;;23.97;50.23
66196;BME280;53000;45.182;5.736;2022-10-14T13:53:58;99339.56;;;23.87;49.87
66196;BME280;53000;45.182;5.736;2022-10-14T13:56:29;99337.81;;;23.81;50.01
66196;BME280;53000;45.182;5.736;2022-10-14T13:58:57;99334.97;;;23.76;50.17
66196;BME280;53000;45.182;5.736;2022-10-14T14:01:34;99333.28;;;23.75;50.48
66196;BME280;53000;45.182;5.736;2022-10-14T14:04:01;99334.09;;;23.75;50.29
66196;BME280;53000;45.182;5.736;2022-10-14T14:06:27;99337.47;;;23.77;50.04
66196;BME280;53000;45.182;5.736;2022-10-14T14:08:57;99336.41;;;23.78;50.29
66196;BME280;53000;45.182;5.736;2022-10-14T14:11:29;99324.00;;;23.81;50.00
66196;BME280;53000;45.182;5.736;2022-10-14T14:13:57;99336.47;;;23.83;50.10
66196;BME280;53000;45.182;5.736;2022-10-14T14:16:30;99331.00;;;23.88;50.14
66196;BME280;53000;45.182;5.736;2022-10-14T14:18:56;99327.41;;;23.88;50.12
66196;BME280;53000;45.182;5.736;2022-10-14T14:21:25;99341.47;;;23.86;49.93
66196;BME280;53000;45.182;5.736;2022-10-14T14:23:56;99343.97;;;23.88;50.33
66196;BME280;53000;45.182;5.736;2022-10-14T14:26:31;99344.81;;;23.88;50.79
66196;BME280;53000;45.182;5.736;2022-10-14T14:29:03;99345.09;;;23.87;50.92
66196;BME280;53000;45.182;5.736;2022-10-14T14:31:29;99338.97;;;23.85;51.25
66196;BME280;53000;45.182;5.736;2022-10-14T14:33:58;99334.53;;;23.84;51.10
66196;BME280;53000;45.182;5.736;2022-10-14T14:36:28;99337.22;;;23.79;51.21
66196;BME280;53000;45.182;5.736;2022-10-14T14:38:58;99336.03;;;23.75;51.39
66196;BME280;53000;45.182;5.736;2022-10-14T14:41:29;99331.75;;;23.67;51.63
66196;BME280;53000;45.182;5.736;2022-10-14T14:43:57;99335.28;;;23.62;51.45
66196;BME280;53000;45.182;5.736;2022-10-14T14:46:30;99334.97;;;23.59;51.29
66196;BME280;53000;45.182;5.736;2022-10-14T14:49:01;99331.31;;;23.53;51.70
66196;BME280;53000;45.182;5.736;2022-10-14T14:51:42;99331.47;;;23.46;51.33
66196;BME280;53000;45.182;5.736;2022-10-14T14:54:19;99329.47;;;23.42;51.71
66196;BME280;53000;45.182;5.736;2022-10-14T14:57:06;99332.72;;;23.39;51.76
66196;BME280;53000;45.182;5.736;2022-10-14T14:59:40;99324.63;;;23.32;52.11
66196;BME280;53000;45.182;5.736;2022-10-14T15:02:17;99327.63;;;23.31;51.97
66196;BME280;53000;45.182;5.736;2022-10-14T15:04:44;99323.19;;;23.30;52.06
66196;BME280;53000;45.182;5.736;2022-10-14T15:07:18;99325.97;;;23.30;52.04
66196;BME280;53000;45.182;5.736;2022-10-14T15:10:05;99323.19;;;23.30;52.60
66196;BME280;53000;45.182;5.736;2022-10-14T15:12:36;99329.06;;;23.33;52.51
66196;BME280;53000;45.182;5.736;2022-10-14T15:15:27;99327.97;;;23.34;52.98
66196;BME280;53000;45.182;5.736;2022-10-14T15:20:33;99333.31;;;23.41;52.57
66196;BME280;53000;45.182;5.736;2022-10-14T15:22:59;99330.31;;;23.42;53.00
66196;BME280;53000;45.182;5.736;2022-10-14T15:25:29;99330.91;;;23.44;53.10
66196;BME280;53000;45.182;5.736;2022-10-14T15:27:57;99332.91;;;23.49;52.69
66196;BME280;53000;45.182;5.736;2022-10-14T15:30:30;99328.47;;;23.48;52.73
66196;BME280;53000;45.182;5.736;2022-10-14T15:32:58;99322.03;;;23.42;52.64
66196;BME280;53000;45.182;5.736;2022-10-14T15:35:25;99318.34;;;23.37;52.51